createdAt,value
2016-07-15T00:00:33.611Z,0
2016-07-15T00:01:34.143Z,0
2016-07-15T00:02:33.622Z,0
2016-07-15T00:03:33.556Z,0
2016-07-15T00:04:33.523Z,0
2016-07-15T00:05:33.518Z,0
2016-07-15T00:06:33.521Z,0
2016-07-15T00:07:33.527Z,0
2016-07-15T00:08:33.510Z,0
2016-07-15T00:09:33.497Z,0
2016-07-15T00:10:33.523Z,0
2016-07-15T00:11:33.497Z,0
2016-07-15T00:12:33.519Z,0
2016-07-15T00:13:33.556Z,0
2016-07-15T00:14:33.582Z,0
2016-07-15T00:15:33.553Z,0
2016-07-15T00:16:33.535Z,0
2016-07-15T00:17:33.546Z,0
2016-07-15T00:18:33.579Z,0
2016-07-15T00:19:33.586Z,0
2016-07-15T00:20:33.596Z,0
2016-07-15T00:21:33.589Z,0
2016-07-15T00:22:33.548Z,0
2016-07-15T00:23:33.651Z,0
2016-07-15T00:24:33.594Z,0
2016-07-15T00:25:33.616Z,0
2016-07-15T00:26:33.541Z,0
2016-07-15T00:27:33.593Z,0
2016-07-15T00:28:33.585Z,0
2016-07-15T00:29:33.585Z,0
2016-07-15T00:30:33.554Z,0
2016-07-15T00:31:33.660Z,0
2016-07-15T00:32:33.562Z,0
2016-07-15T00:33:33.543Z,0
2016-07-15T00:34:33.535Z,0
2016-07-15T00:35:33.616Z,0
2016-07-15T00:36:33.586Z,0
2016-07-15T00:37:33.567Z,0
2016-07-15T00:38:33.539Z,0
2016-07-15T00:39:34.202Z,0
2016-07-15T00:40:33.586Z,0
2016-07-15T00:41:33.521Z,0
2016-07-15T00:42:33.566Z,0
2016-07-15T00:43:33.556Z,0
2016-07-15T00:44:33.610Z,0
2016-07-15T00:45:33.559Z,0
2016-07-15T00:46:33.585Z,0
2016-07-15T00:47:33.562Z,0
2016-07-15T00:48:33.524Z,0
2016-07-15T00:49:33.643Z,0
2016-07-15T00:50:33.625Z,0
2016-07-15T00:51:33.585Z,0
2016-07-15T00:52:33.617Z,0
2016-07-15T00:53:33.587Z,0
2016-07-15T00:54:33.621Z,0
2016-07-15T00:55:33.593Z,0
2016-07-15T00:56:33.604Z,0
2016-07-15T00:57:33.553Z,0
2016-07-15T00:58:33.589Z,0
2016-07-15T00:59:33.559Z,0
2016-07-15T01:00:33.658Z,0
2016-07-15T01:01:33.587Z,0
2016-07-15T01:02:33.605Z,0
2016-07-15T01:03:33.584Z,0
2016-07-15T01:04:33.621Z,0
2016-07-15T01:05:33.622Z,0
2016-07-15T01:06:33.601Z,0
2016-07-15T01:07:33.624Z,0
2016-07-15T01:08:33.554Z,0
2016-07-15T01:09:34.229Z,0
2016-07-15T01:10:33.545Z,0
2016-07-15T01:11:33.557Z,0
2016-07-15T01:12:33.596Z,0
2016-07-15T01:13:33.576Z,0
2016-07-15T01:14:33.566Z,0
2016-07-15T01:15:33.613Z,0
2016-07-15T01:16:33.547Z,0
2016-07-15T01:17:33.579Z,0
2016-07-15T01:18:33.562Z,0
2016-07-15T01:19:33.585Z,0
2016-07-15T01:20:33.642Z,0
2016-07-15T01:21:33.592Z,0
2016-07-15T01:22:33.605Z,0
2016-07-15T01:23:33.591Z,0
2016-07-15T01:24:33.617Z,0
2016-07-15T01:25:33.612Z,0
2016-07-15T01:26:33.647Z,0
2016-07-15T01:27:33.577Z,0
2016-07-15T01:28:33.596Z,0
2016-07-15T01:29:33.600Z,0
2016-07-15T01:30:33.551Z,0
2016-07-15T01:31:33.622Z,0
2016-07-15T01:32:33.632Z,0
2016-07-15T01:33:33.690Z,0
2016-07-15T01:34:33.627Z,0
2016-07-15T01:35:33.649Z,0
2016-07-15T01:36:33.546Z,0
2016-07-15T01:37:33.614Z,0
2016-07-15T01:38:33.714Z,0
2016-07-15T01:39:33.681Z,0
2016-07-15T01:40:33.646Z,0
2016-07-15T01:41:33.648Z,0
2016-07-15T01:42:33.611Z,0
2016-07-15T01:43:33.573Z,0
2016-07-15T01:44:33.590Z,0
2016-07-15T01:45:33.599Z,0
2016-07-15T01:46:33.589Z,0
2016-07-15T01:47:33.619Z,0
2016-07-15T01:48:33.590Z,0
2016-07-15T01:49:33.594Z,0
2016-07-15T01:50:33.635Z,0
2016-07-15T01:51:33.598Z,0
2016-07-15T01:52:33.591Z,0
2016-07-15T01:53:33.585Z,0
2016-07-15T01:54:33.621Z,0
2016-07-15T01:55:33.659Z,0
2016-07-15T01:56:33.591Z,0
2016-07-15T01:57:33.626Z,0
2016-07-15T01:58:33.613Z,0
2016-07-15T01:59:33.686Z,0
2016-07-15T02:00:33.619Z,0
2016-07-15T02:01:33.595Z,0
2016-07-15T02:02:33.630Z,0
2016-07-15T02:03:33.618Z,0
2016-07-15T02:04:33.595Z,0
2016-07-15T02:05:33.657Z,0
2016-07-15T02:06:33.657Z,0
2016-07-15T02:07:33.622Z,0
2016-07-15T02:08:33.677Z,0
2016-07-15T02:09:33.714Z,0
2016-07-15T02:10:33.601Z,0
2016-07-15T02:11:33.638Z,0
2016-07-15T02:12:33.642Z,0
2016-07-15T02:13:33.656Z,0
2016-07-15T02:14:33.680Z,0
2016-07-15T02:15:33.630Z,0
2016-07-15T02:16:33.656Z,0
2016-07-15T02:17:32.716Z,0
2016-07-15T02:18:32.664Z,0
2016-07-15T02:19:32.691Z,0
2016-07-15T02:20:32.699Z,0
2016-07-15T02:21:32.760Z,0
2016-07-15T02:22:32.710Z,0
2016-07-15T02:23:32.680Z,0
2016-07-15T02:24:32.725Z,0
2016-07-15T02:25:32.736Z,0
2016-07-15T02:26:32.749Z,0
2016-07-15T02:27:32.810Z,0
2016-07-15T02:28:32.752Z,0
2016-07-15T02:29:32.732Z,0
2016-07-15T02:30:32.683Z,0
2016-07-15T02:31:32.732Z,0
2016-07-15T02:32:32.732Z,0
2016-07-15T02:33:32.690Z,0
2016-07-15T02:34:32.791Z,0
2016-07-15T02:35:32.742Z,0
2016-07-15T02:36:32.713Z,0
2016-07-15T02:37:32.745Z,0
2016-07-15T02:38:32.714Z,0
2016-07-15T02:39:32.693Z,0
2016-07-15T02:40:32.691Z,0
2016-07-15T02:41:32.724Z,0
2016-07-15T02:42:32.755Z,0
2016-07-15T02:43:32.758Z,0
2016-07-15T02:44:32.733Z,0
2016-07-15T02:45:32.709Z,0
2016-07-15T02:46:32.744Z,0
2016-07-15T02:47:32.751Z,0
2016-07-15T02:48:32.719Z,0
2016-07-15T02:49:32.698Z,0
2016-07-15T02:50:32.715Z,0
2016-07-15T02:51:32.727Z,0
2016-07-15T02:52:32.741Z,0
2016-07-15T02:53:32.789Z,0
2016-07-15T02:54:32.760Z,0
2016-07-15T02:55:32.767Z,0
2016-07-15T02:56:32.738Z,0
2016-07-15T02:57:32.761Z,0
2016-07-15T02:58:32.775Z,0
2016-07-15T02:59:33.129Z,0
2016-07-15T03:00:33.112Z,0
2016-07-15T03:01:33.096Z,0
2016-07-15T03:02:33.106Z,0
2016-07-15T03:03:33.166Z,0
2016-07-15T03:04:33.141Z,0
2016-07-15T03:05:33.178Z,0
2016-07-15T03:06:33.210Z,0
2016-07-15T03:07:33.178Z,0
2016-07-15T03:08:33.150Z,0
2016-07-15T03:09:33.178Z,0
2016-07-15T03:10:33.142Z,0
2016-07-15T03:11:33.134Z,0
2016-07-15T03:12:33.153Z,0
2016-07-15T03:13:33.123Z,0
2016-07-15T03:14:33.131Z,0
2016-07-15T03:15:33.103Z,0
2016-07-15T03:16:33.124Z,0
2016-07-15T03:17:33.159Z,0
2016-07-15T03:18:33.167Z,0
2016-07-15T03:19:33.148Z,0
2016-07-15T03:20:33.227Z,0
2016-07-15T03:21:33.183Z,0
2016-07-15T03:22:33.151Z,0
2016-07-15T03:23:33.119Z,0
2016-07-15T03:24:33.137Z,0
2016-07-15T03:25:33.133Z,0
2016-07-15T03:26:33.179Z,0
2016-07-15T03:27:33.142Z,0
2016-07-15T03:28:33.191Z,0
2016-07-15T03:29:33.152Z,0
2016-07-15T03:30:33.167Z,0
2016-07-15T03:31:33.205Z,0
2016-07-15T03:32:33.158Z,0
2016-07-15T03:33:33.157Z,0
2016-07-15T03:34:33.144Z,0
2016-07-15T03:35:33.249Z,5
2016-07-15T03:36:33.135Z,5
2016-07-15T03:37:33.116Z,5
2016-07-15T03:38:33.108Z,5
2016-07-15T03:39:33.152Z,5
2016-07-15T03:40:33.111Z,5
2016-07-15T03:41:33.149Z,5
2016-07-15T03:42:33.687Z,5
2016-07-15T03:43:33.715Z,5
2016-07-15T03:44:33.696Z,5
2016-07-15T03:45:33.682Z,10
2016-07-15T03:46:33.687Z,10
2016-07-15T03:47:33.694Z,10
2016-07-15T03:48:33.700Z,10
2016-07-15T03:49:33.707Z,10
2016-07-15T03:50:33.713Z,10
2016-07-15T03:51:33.713Z,10
2016-07-15T03:52:33.685Z,10
2016-07-15T03:53:33.689Z,10
2016-07-15T03:54:33.708Z,10
2016-07-15T03:55:33.715Z,15
2016-07-15T03:56:33.721Z,15
2016-07-15T03:57:33.686Z,15
2016-07-15T03:58:33.735Z,15
2016-07-15T03:59:33.704Z,15
2016-07-15T04:00:33.775Z,15
2016-07-15T04:01:33.745Z,15
2016-07-15T04:02:33.716Z,15
2016-07-15T04:03:33.745Z,15
2016-07-15T04:04:33.807Z,15
2016-07-15T04:05:33.807Z,15
2016-07-15T04:06:33.773Z,15
2016-07-15T04:07:33.814Z,15
2016-07-15T04:08:33.750Z,15
2016-07-15T04:09:33.716Z,15
2016-07-15T04:10:33.746Z,15
2016-07-15T04:11:33.743Z,15
2016-07-15T04:12:33.716Z,15
2016-07-15T04:13:33.776Z,15
2016-07-15T04:14:33.777Z,15
2016-07-15T04:15:33.788Z,15
2016-07-15T04:16:33.806Z,15
2016-07-15T04:17:33.787Z,15
2016-07-15T04:18:33.755Z,15
2016-07-15T04:19:33.760Z,15
2016-07-15T04:20:33.774Z,15
2016-07-15T04:21:33.753Z,15
2016-07-15T04:22:33.797Z,20
2016-07-15T04:23:33.818Z,20
2016-07-15T04:24:33.752Z,20
2016-07-15T04:25:33.733Z,25
2016-07-15T04:26:33.733Z,25
2016-07-15T04:27:33.718Z,25
2016-07-15T04:28:33.701Z,30
2016-07-15T04:29:33.777Z,30
2016-07-15T04:30:33.734Z,35
2016-07-15T04:31:33.717Z,35
2016-07-15T04:32:33.746Z,40
2016-07-15T04:33:33.715Z,40
2016-07-15T04:34:33.735Z,45
2016-07-15T04:35:33.747Z,45
2016-07-15T04:36:33.763Z,45
2016-07-15T04:37:33.753Z,50
2016-07-15T04:38:33.732Z,50
2016-07-15T04:39:33.739Z,50
2016-07-15T04:40:33.778Z,50
2016-07-15T04:41:33.729Z,50
2016-07-15T04:42:33.724Z,50
2016-07-15T04:43:33.768Z,50
2016-07-15T04:44:33.716Z,55
2016-07-15T04:45:33.748Z,55
2016-07-15T04:46:33.787Z,55
2016-07-15T04:47:33.752Z,60
2016-07-15T04:48:33.728Z,60
2016-07-15T04:49:33.766Z,60
2016-07-15T04:50:33.785Z,60
2016-07-15T04:51:33.751Z,60
2016-07-15T04:52:33.731Z,60
2016-07-15T04:53:33.805Z,60
2016-07-15T04:54:33.779Z,65
2016-07-15T04:55:33.778Z,65
2016-07-15T04:56:33.811Z,65
2016-07-15T04:57:33.756Z,70
2016-07-15T04:58:33.762Z,70
2016-07-15T04:59:33.777Z,75
2016-07-15T05:00:33.782Z,75
2016-07-15T05:01:33.779Z,80
2016-07-15T05:02:33.753Z,80
2016-07-15T05:03:34.418Z,80
2016-07-15T05:04:33.749Z,80
2016-07-15T05:05:34.987Z,80
2016-07-15T05:06:33.751Z,85
2016-07-15T05:07:33.785Z,85
2016-07-15T05:08:33.792Z,85
2016-07-15T05:09:34.747Z,90
2016-07-15T05:10:33.901Z,90
2016-07-15T05:11:33.961Z,95
2016-07-15T05:12:33.779Z,95
2016-07-15T05:13:33.836Z,95
2016-07-15T05:14:33.780Z,95
2016-07-15T05:15:33.843Z,95
2016-07-15T05:16:33.844Z,95
2016-07-15T05:17:34.476Z,95
2016-07-15T05:18:33.787Z,95
2016-07-15T05:19:33.781Z,100
2016-07-15T05:20:33.841Z,105
2016-07-15T05:21:33.813Z,105
2016-07-15T05:22:33.814Z,105
2016-07-15T05:23:33.762Z,105
2016-07-15T05:24:33.768Z,100
2016-07-15T05:25:33.761Z,100
2016-07-15T05:26:34.190Z,105
2016-07-15T05:27:34.111Z,105
2016-07-15T05:28:33.753Z,110
2016-07-15T05:29:33.751Z,110
2016-07-15T05:30:33.765Z,110
2016-07-15T05:31:33.776Z,110
2016-07-15T05:32:33.779Z,110
2016-07-15T05:33:34.661Z,110
2016-07-15T05:34:34.099Z,115
2016-07-15T05:35:34.321Z,125
2016-07-15T05:36:34.262Z,130
2016-07-15T05:37:34.703Z,140
2016-07-15T05:38:34.534Z,140
2016-07-15T05:39:34.094Z,150
2016-07-15T05:40:33.872Z,155
2016-07-15T05:41:33.782Z,160
2016-07-15T05:42:33.889Z,165
2016-07-15T05:43:34.040Z,175
2016-07-15T05:44:34.232Z,180
2016-07-15T05:45:34.326Z,185
2016-07-15T05:46:34.111Z,190
2016-07-15T05:47:33.907Z,190
2016-07-15T05:48:34.021Z,200
2016-07-15T05:49:33.984Z,210
2016-07-15T05:50:33.884Z,225
2016-07-15T05:51:33.786Z,240
2016-07-15T05:52:33.961Z,250
2016-07-15T05:53:34.096Z,255
2016-07-15T05:54:34.296Z,245
2016-07-15T05:55:34.015Z,230
2016-07-15T05:56:33.914Z,225
2016-07-15T05:57:34.302Z,195
2016-07-15T05:58:34.044Z,195
2016-07-15T05:59:33.906Z,230
2016-07-15T06:00:34.591Z,255
2016-07-15T06:01:33.872Z,235
2016-07-15T06:02:34.035Z,240
2016-07-15T06:03:34.997Z,230
2016-07-15T06:04:34.554Z,265
2016-07-15T06:05:33.947Z,275
2016-07-15T06:06:33.821Z,240
2016-07-15T06:07:33.815Z,225
2016-07-15T06:08:33.921Z,195
2016-07-15T06:09:33.834Z,185
2016-07-15T06:10:33.849Z,160
2016-07-15T06:11:33.844Z,135
2016-07-15T06:12:33.806Z,205
2016-07-15T06:13:33.802Z,175
2016-07-15T06:14:33.780Z,155
2016-07-15T06:15:33.807Z,150
2016-07-15T06:16:33.825Z,205
2016-07-15T06:17:33.810Z,260
2016-07-15T06:18:33.822Z,325
2016-07-15T06:19:33.876Z,340
2016-07-15T06:20:33.843Z,310
2016-07-15T06:21:33.828Z,345
2016-07-15T06:22:33.834Z,420
2016-07-15T06:23:33.839Z,320
2016-07-15T06:24:33.836Z,270
2016-07-15T06:25:33.825Z,240
2016-07-15T06:26:33.813Z,260
2016-07-15T06:27:33.843Z,295
2016-07-15T06:28:33.807Z,260
2016-07-15T06:29:33.844Z,260
2016-07-15T06:30:33.813Z,245
2016-07-15T06:31:33.885Z,205
2016-07-15T06:32:33.844Z,215
2016-07-15T06:33:33.870Z,220
2016-07-15T06:34:40.416Z,215
2016-07-15T06:35:44.769Z,225
2016-07-15T06:36:33.817Z,210
2016-07-15T06:37:42.964Z,195
2016-07-15T06:38:43.310Z,220
2016-07-15T06:39:35.829Z,220
2016-07-15T06:41:20.185Z,245
2016-07-15T06:41:53.016Z,240
2016-07-15T06:43:09.378Z,315
2016-07-15T06:44:15.252Z,450
2016-07-15T06:45:24.947Z,385
2016-07-15T06:45:40.432Z,345
2016-07-15T06:47:42.784Z,220
2016-07-15T06:49:11.586Z,255
2016-07-15T06:50:36.290Z,295
2016-07-15T06:51:52.398Z,260
2016-07-15T06:52:35.887Z,240
2016-07-15T06:54:02.431Z,265
2016-07-15T06:54:47.744Z,270
2016-07-15T06:55:34.230Z,285
2016-07-15T06:56:27.371Z,265
2016-07-15T06:57:40.779Z,240
2016-07-15T06:58:20.582Z,245
2016-07-15T06:59:20.552Z,280
2016-07-15T07:00:20.554Z,320
2016-07-15T07:01:20.569Z,345
2016-07-15T07:02:20.551Z,375
2016-07-15T07:03:20.619Z,435
2016-07-15T07:04:20.529Z,1220
2016-07-15T07:05:20.605Z,780
2016-07-15T07:06:20.583Z,840
2016-07-15T07:07:20.563Z,690
2016-07-15T07:08:20.555Z,620
2016-07-15T07:09:20.549Z,485
2016-07-15T07:10:20.549Z,1120
2016-07-15T07:11:20.556Z,420
2016-07-15T07:12:20.580Z,395
2016-07-15T07:13:20.581Z,350
2016-07-15T07:14:20.579Z,315
2016-07-15T07:15:37.108Z,320
2016-07-15T07:16:23.434Z,355
2016-07-15T07:17:35.614Z,390
2016-07-15T07:18:42.826Z,320
2016-07-15T07:19:42.699Z,325
2016-07-15T07:20:21.278Z,370
2016-07-15T07:21:35.514Z,435
2016-07-15T07:22:41.617Z,420
2016-07-15T07:23:52.597Z,445
2016-07-15T07:24:20.755Z,455
2016-07-15T07:25:20.647Z,680
2016-07-15T07:26:20.891Z,1015
2016-07-15T07:27:20.609Z,575
2016-07-15T07:28:20.664Z,545
2016-07-15T07:29:20.603Z,940
2016-07-15T07:30:20.602Z,625
2016-07-15T07:31:20.535Z,505
2016-07-15T07:32:20.722Z,620
2016-07-15T07:33:20.592Z,620
2016-07-15T07:34:20.725Z,630
2016-07-15T07:35:20.817Z,615
2016-07-15T07:36:20.551Z,580
2016-07-15T07:37:20.618Z,490
2016-07-15T07:38:20.562Z,1095
2016-07-15T07:39:20.592Z,1725
2016-07-15T07:40:20.608Z,1350
2016-07-15T07:41:20.637Z,1730
2016-07-15T07:42:20.684Z,780
2016-07-15T07:43:20.556Z,1285
2016-07-15T07:44:20.677Z,1695
2016-07-15T07:45:20.629Z,1790
2016-07-15T07:46:20.613Z,1375
2016-07-15T07:47:20.606Z,900
2016-07-15T07:48:20.572Z,540
2016-07-15T07:49:21.252Z,400
2016-07-15T07:50:20.659Z,1275
2016-07-15T07:51:20.646Z,245
2016-07-15T07:52:20.711Z,240
2016-07-15T07:53:20.654Z,270
2016-07-15T07:54:20.589Z,310
2016-07-15T07:55:20.621Z,340
2016-07-15T07:56:20.796Z,360
2016-07-15T07:57:20.653Z,350
2016-07-15T07:58:20.710Z,335
2016-07-15T07:59:20.673Z,305
2016-07-15T08:00:21.035Z,275
2016-07-15T08:01:20.619Z,280
2016-07-15T08:02:20.621Z,275
2016-07-15T08:03:20.600Z,305
2016-07-15T08:04:20.587Z,270
2016-07-15T08:05:20.625Z,265
2016-07-15T08:06:20.602Z,255
2016-07-15T08:07:20.594Z,260
2016-07-15T08:08:20.586Z,290
2016-07-15T08:09:20.619Z,340
2016-07-15T08:10:20.599Z,410
2016-07-15T08:11:20.597Z,500
2016-07-15T08:12:20.627Z,460
2016-07-15T08:13:20.617Z,345
2016-07-15T08:14:20.696Z,280
2016-07-15T08:15:20.697Z,270
2016-07-15T08:16:21.280Z,290
2016-07-15T08:17:20.711Z,325
2016-07-15T08:18:20.621Z,350
2016-07-15T08:19:20.649Z,355
2016-07-15T08:20:20.665Z,320
2016-07-15T08:21:20.698Z,320
2016-07-15T08:22:20.621Z,310
2016-07-15T08:23:21.342Z,310
2016-07-15T08:24:20.771Z,305
2016-07-15T08:25:21.172Z,290
2016-07-15T08:26:20.592Z,270
2016-07-15T08:27:20.691Z,265
2016-07-15T08:28:20.682Z,290
2016-07-15T08:29:20.873Z,305
2016-07-15T08:30:20.597Z,340
2016-07-15T08:31:20.715Z,380
2016-07-15T08:32:20.620Z,395
2016-07-15T08:33:20.592Z,365
2016-07-15T08:34:20.684Z,305
2016-07-15T08:35:20.621Z,260
2016-07-15T08:36:20.612Z,300
2016-07-15T08:37:20.619Z,290
2016-07-15T08:38:20.667Z,275
2016-07-15T08:39:20.683Z,260
2016-07-15T08:40:20.715Z,250
2016-07-15T08:41:20.688Z,245
2016-07-15T08:42:20.654Z,240
2016-07-15T08:43:20.683Z,245
2016-07-15T08:44:20.631Z,255
2016-07-15T08:45:20.689Z,285
2016-07-15T08:46:20.645Z,315
2016-07-15T08:47:20.636Z,370
2016-07-15T08:48:20.612Z,370
2016-07-15T08:49:20.806Z,365
2016-07-15T08:50:20.847Z,305
2016-07-15T08:51:20.624Z,275
2016-07-15T08:52:20.705Z,245
2016-07-15T08:53:20.673Z,210
2016-07-15T08:54:20.685Z,195
2016-07-15T08:55:21.612Z,220
2016-07-15T08:56:20.666Z,210
2016-07-15T08:57:20.688Z,210
2016-07-15T08:58:20.715Z,210
2016-07-15T08:59:20.694Z,215
2016-07-15T09:00:20.879Z,225
2016-07-15T09:01:20.656Z,225
2016-07-15T09:02:20.689Z,240
2016-07-15T09:03:20.644Z,235
2016-07-15T09:04:20.626Z,250
2016-07-15T09:05:21.197Z,285
2016-07-15T09:06:20.718Z,335
2016-07-15T09:07:20.686Z,315
2016-07-15T09:08:20.642Z,320
2016-07-15T09:09:20.653Z,385
2016-07-15T09:10:20.684Z,405
2016-07-15T09:11:20.678Z,350
2016-07-15T09:12:20.814Z,285
2016-07-15T09:13:20.629Z,275
2016-07-15T09:14:20.658Z,265
2016-07-15T09:15:20.651Z,275
2016-07-15T09:16:20.680Z,310
2016-07-15T09:17:20.684Z,335
2016-07-15T09:18:20.653Z,345
2016-07-15T09:19:20.778Z,355
2016-07-15T09:20:20.677Z,370
2016-07-15T09:21:20.684Z,350
2016-07-15T09:22:20.653Z,365
2016-07-15T09:23:20.751Z,380
2016-07-15T09:24:20.714Z,455
2016-07-15T09:25:20.691Z,535
2016-07-15T09:26:20.725Z,540
2016-07-15T09:27:20.652Z,470
2016-07-15T09:28:20.749Z,380
2016-07-15T09:29:20.687Z,320
2016-07-15T09:30:20.724Z,305
2016-07-15T09:31:20.758Z,295
2016-07-15T09:32:20.730Z,280
2016-07-15T09:33:20.739Z,290
2016-07-15T09:34:20.979Z,305
2016-07-15T09:35:20.696Z,325
2016-07-15T09:36:20.685Z,325
2016-07-15T09:37:20.740Z,290
2016-07-15T09:38:20.689Z,290
2016-07-15T09:39:20.686Z,360
2016-07-15T09:40:21.218Z,410
2016-07-15T09:41:20.724Z,425
2016-07-15T09:42:20.715Z,360
2016-07-15T09:43:20.709Z,275
2016-07-15T09:44:20.783Z,235
2016-07-15T09:45:20.766Z,255
2016-07-15T09:46:20.667Z,295
2016-07-15T09:47:20.761Z,330
2016-07-15T09:48:20.709Z,370
2016-07-15T09:49:20.677Z,405
2016-07-15T09:50:20.711Z,380
2016-07-15T09:51:20.751Z,345
2016-07-15T09:52:20.745Z,360
2016-07-15T09:53:20.746Z,420
2016-07-15T09:54:20.745Z,425
2016-07-15T09:55:20.744Z,390
2016-07-15T09:56:20.945Z,350
2016-07-15T09:57:20.777Z,335
2016-07-15T09:58:20.717Z,370
2016-07-15T09:59:20.750Z,420
2016-07-15T10:00:20.689Z,465
2016-07-15T10:01:20.684Z,435
2016-07-15T10:02:20.802Z,450
2016-07-15T10:03:20.776Z,450
2016-07-15T10:04:20.841Z,445
2016-07-15T10:05:20.868Z,470
2016-07-15T10:06:21.471Z,550
2016-07-15T10:07:20.746Z,595
2016-07-15T10:08:20.840Z,580
2016-07-15T10:09:20.770Z,540
2016-07-15T10:10:20.724Z,545
2016-07-15T10:11:20.802Z,540
2016-07-15T10:12:20.718Z,495
2016-07-15T10:13:20.717Z,520
2016-07-15T10:14:21.033Z,525
2016-07-15T10:15:20.778Z,540
2016-07-15T10:16:20.690Z,550
2016-07-15T10:17:20.708Z,575
2016-07-15T10:18:20.709Z,600
2016-07-15T10:19:20.715Z,595
2016-07-15T10:20:20.754Z,535
2016-07-15T10:21:20.721Z,470
2016-07-15T10:22:20.890Z,475
2016-07-15T10:23:20.808Z,425
2016-07-15T10:24:20.864Z,400
2016-07-15T10:25:20.813Z,385
2016-07-15T10:26:21.059Z,355
2016-07-15T10:27:21.039Z,345
2016-07-15T10:28:20.780Z,350
2016-07-15T10:29:20.803Z,355
2016-07-15T10:30:20.822Z,330
2016-07-15T10:31:20.887Z,305
2016-07-15T10:32:20.870Z,300
2016-07-15T10:33:20.846Z,275
2016-07-15T10:34:20.813Z,275
2016-07-15T10:35:20.782Z,260
2016-07-15T10:36:20.813Z,280
2016-07-15T10:37:20.828Z,320
2016-07-15T10:38:20.889Z,380
2016-07-15T10:39:21.786Z,450
2016-07-15T10:40:20.827Z,490
2016-07-15T10:41:20.993Z,475
2016-07-15T10:42:20.987Z,465
2016-07-15T10:43:20.780Z,430
2016-07-15T10:44:20.848Z,395
2016-07-15T10:45:20.839Z,395
2016-07-15T10:46:20.998Z,390
2016-07-15T10:47:20.998Z,380
2016-07-15T10:48:20.901Z,380
2016-07-15T10:49:20.871Z,410
2016-07-15T10:50:20.988Z,440
2016-07-15T10:51:20.870Z,500
2016-07-15T10:52:20.871Z,510
2016-07-15T10:53:20.912Z,460
2016-07-15T10:54:21.333Z,480
2016-07-15T10:55:21.228Z,495
2016-07-15T10:56:20.945Z,435
2016-07-15T10:57:21.260Z,400
2016-07-15T10:58:21.002Z,380
2016-07-15T10:59:20.902Z,375
2016-07-15T11:00:21.041Z,380
2016-07-15T11:01:21.025Z,375
2016-07-15T11:02:20.948Z,365
2016-07-15T11:03:20.905Z,385
2016-07-15T11:04:21.036Z,390
2016-07-15T11:05:21.083Z,415
2016-07-15T11:06:20.981Z,395
2016-07-15T11:07:21.359Z,335
2016-07-15T11:08:21.560Z,270
2016-07-15T11:09:21.567Z,250
2016-07-15T11:10:21.069Z,250
2016-07-15T11:11:20.986Z,260
2016-07-15T11:12:20.880Z,290
2016-07-15T11:13:21.200Z,345
2016-07-15T11:14:20.975Z,390
2016-07-15T11:15:21.444Z,400
2016-07-15T11:16:20.968Z,370
2016-07-15T11:17:21.219Z,335
2016-07-15T11:18:21.672Z,295
2016-07-15T11:19:21.088Z,295
2016-07-15T11:20:21.327Z,295
2016-07-15T11:21:21.187Z,265
2016-07-15T11:22:20.930Z,230
2016-07-15T11:23:20.925Z,225
2016-07-15T11:24:20.810Z,255
2016-07-15T11:25:21.341Z,320
2016-07-15T11:26:21.118Z,365
2016-07-15T11:27:21.842Z,400
2016-07-15T11:28:21.030Z,425
2016-07-15T11:29:21.174Z,415
2016-07-15T11:30:20.935Z,410
2016-07-15T11:31:20.960Z,400
2016-07-15T11:32:20.855Z,380
2016-07-15T11:33:20.907Z,325
2016-07-15T11:34:20.936Z,350
2016-07-15T11:35:20.864Z,365
2016-07-15T11:36:20.993Z,360
2016-07-15T11:37:20.955Z,375
2016-07-15T11:38:20.999Z,400
2016-07-15T11:39:20.998Z,435
2016-07-15T11:40:20.864Z,450
2016-07-15T11:41:20.879Z,475
2016-07-15T11:42:21.050Z,470
2016-07-15T11:43:21.481Z,430
2016-07-15T11:44:21.117Z,350
2016-07-15T11:45:21.513Z,310
2016-07-15T11:46:21.101Z,300
2016-07-15T11:47:20.939Z,300
2016-07-15T11:48:20.872Z,295
2016-07-15T11:49:20.905Z,300
2016-07-15T11:50:20.852Z,315
2016-07-15T11:51:21.250Z,345
2016-07-15T11:52:20.779Z,390
2016-07-15T11:53:20.864Z,440
2016-07-15T11:54:20.843Z,480
2016-07-15T11:55:20.802Z,505
2016-07-15T11:56:20.963Z,500
2016-07-15T11:57:20.933Z,485
2016-07-15T11:58:20.912Z,475
2016-07-15T11:59:20.912Z,415
2016-07-15T12:00:21.001Z,340
2016-07-15T12:01:20.849Z,255
2016-07-15T12:02:20.812Z,195
2016-07-15T12:03:20.846Z,160
2016-07-15T12:04:20.781Z,150
2016-07-15T12:05:20.809Z,155
2016-07-15T12:06:20.849Z,180
2016-07-15T12:07:20.819Z,205
2016-07-15T12:08:20.887Z,235
2016-07-15T12:09:20.865Z,265
2016-07-15T12:10:20.903Z,290
2016-07-15T12:11:21.450Z,305
2016-07-15T12:12:20.905Z,330
2016-07-15T12:13:20.933Z,330
2016-07-15T12:14:20.933Z,330
2016-07-15T12:15:20.846Z,300
2016-07-15T12:16:20.875Z,280
2016-07-15T12:17:20.904Z,260
2016-07-15T12:18:20.842Z,265
2016-07-15T12:19:20.875Z,290
2016-07-15T12:20:20.861Z,300
2016-07-15T12:21:20.871Z,320
2016-07-15T12:22:20.874Z,325
2016-07-15T12:23:20.877Z,360
2016-07-15T12:24:21.598Z,385
2016-07-15T12:25:20.956Z,370
2016-07-15T12:26:20.843Z,360
2016-07-15T12:27:20.871Z,385
2016-07-15T12:28:20.851Z,400
2016-07-15T12:29:20.987Z,415
2016-07-15T12:30:20.852Z,430
2016-07-15T12:31:20.997Z,440
2016-07-15T12:32:20.943Z,450
2016-07-15T12:33:21.110Z,435
2016-07-15T12:34:20.901Z,435
2016-07-15T12:35:20.994Z,400
2016-07-15T12:36:20.961Z,350
2016-07-15T12:37:20.882Z,320
2016-07-15T12:38:21.025Z,295
2016-07-15T12:39:20.907Z,295
2016-07-15T12:40:20.897Z,290
2016-07-15T12:41:20.842Z,290
2016-07-15T12:42:20.877Z,280
2016-07-15T12:43:20.905Z,270
2016-07-15T12:44:20.912Z,270
2016-07-15T12:45:20.919Z,260
2016-07-15T12:46:21.747Z,255
2016-07-15T12:47:21.094Z,255
2016-07-15T12:48:20.894Z,250
2016-07-15T12:49:21.053Z,250
2016-07-15T12:50:20.969Z,250
2016-07-15T12:51:20.990Z,250
2016-07-15T12:52:21.113Z,275
2016-07-15T12:53:20.873Z,285
2016-07-15T12:54:22.038Z,305
2016-07-15T12:55:20.929Z,315
2016-07-15T12:56:20.957Z,335
2016-07-15T12:57:21.031Z,340
2016-07-15T12:58:21.030Z,345
2016-07-15T12:59:21.022Z,360
2016-07-15T13:00:20.954Z,375
2016-07-15T13:01:20.926Z,390
2016-07-15T13:02:21.006Z,400
2016-07-15T13:03:21.396Z,420
2016-07-15T13:04:21.034Z,410
2016-07-15T13:05:21.132Z,385
2016-07-15T13:06:20.934Z,370
2016-07-15T13:07:20.982Z,355
2016-07-15T13:08:21.084Z,345
2016-07-15T13:09:21.096Z,330
2016-07-15T13:10:21.031Z,310
2016-07-15T13:11:20.986Z,300
2016-07-15T13:12:21.000Z,305
2016-07-15T13:13:20.948Z,335
2016-07-15T13:14:20.878Z,355
2016-07-15T13:15:20.943Z,350
2016-07-15T13:16:21.061Z,360
2016-07-15T13:17:21.055Z,345
2016-07-15T13:18:21.028Z,325
2016-07-15T13:19:21.898Z,330
2016-07-15T13:20:20.933Z,335
2016-07-15T13:21:20.924Z,345
2016-07-15T13:22:20.937Z,340
2016-07-15T13:23:20.938Z,320
2016-07-15T13:24:20.916Z,290
2016-07-15T13:25:20.937Z,265
2016-07-15T13:26:20.960Z,240
2016-07-15T13:27:21.732Z,220
2016-07-15T13:28:21.039Z,200
2016-07-15T13:29:21.269Z,185
2016-07-15T13:30:21.256Z,175
2016-07-15T13:31:22.016Z,175
2016-07-15T13:32:21.565Z,185
2016-07-15T13:33:21.364Z,195
2016-07-15T13:34:21.228Z,200
2016-07-15T13:35:20.968Z,195
2016-07-15T13:36:22.106Z,195
2016-07-15T13:37:21.735Z,200
2016-07-15T13:38:21.585Z,200
2016-07-15T13:39:21.218Z,220
2016-07-15T13:40:27.130Z,265
2016-07-15T13:41:21.013Z,300
2016-07-15T13:42:21.030Z,315
2016-07-15T13:43:21.597Z,320
2016-07-15T13:44:21.036Z,320
2016-07-15T13:45:20.965Z,325
2016-07-15T13:46:20.931Z,340
2016-07-15T13:47:21.020Z,350
2016-07-15T13:48:20.918Z,370
2016-07-15T13:49:21.085Z,395
2016-07-15T13:50:20.928Z,410
2016-07-15T13:51:21.292Z,410
2016-07-15T13:52:20.955Z,410
2016-07-15T13:53:21.079Z,400
2016-07-15T13:54:21.059Z,385
2016-07-15T13:55:21.027Z,355
2016-07-15T13:56:21.005Z,340
2016-07-15T13:57:21.179Z,330
2016-07-15T13:58:21.117Z,335
2016-07-15T13:59:20.952Z,330
2016-07-15T14:00:21.056Z,320
2016-07-15T14:01:21.095Z,300
2016-07-15T14:02:21.027Z,270
2016-07-15T14:03:20.999Z,245
2016-07-15T14:04:21.615Z,230
2016-07-15T14:05:21.105Z,215
2016-07-15T14:06:22.563Z,200